<?xml version="1.0" encoding="utf-8"?>
<gpx xmlns:xsi="http://www.w3.org/2001/XMLSchema-instance" xmlns:xsd="http://www.w3.org/2001/XMLSchema" version="1.1" creator="Shapelink.com" xmlns="http://www.topografix.com/GPX/1/1" xmlns:gpxtpx="http://www.garmin.com/xmlschemas/TrackPointExtension/v1">
  <metadata>
    <name>Löpning 6.80 km, 2012-03-12</name>
    <desc></desc>
    <author><name>Dennis Rehn</name></author> 
    <time>2012-03-12T07:21:02Z</time>
  </metadata>
  <trk>
    <name>Löpning 6.80 km, 2012-03-12</name>
    <trkseg>
      <trkpt lat="59.9946925372" lon="23.4267367629">
        <ele>29</ele>
        <time>2012-03-12T07:21:02Z</time>
      </trkpt>
      <trkpt lat="59.9946429164" lon="23.4266851304">
        <ele>30.2</ele>
        <time>2012-03-12T07:21:05Z</time>
      </trkpt>
      <trkpt lat="59.9945358795" lon="23.4265605753">
        <ele>33.6</ele>
        <time>2012-03-12T07:21:09Z</time>
      </trkpt>
      <trkpt lat="59.9943637991" lon="23.4263387903">
        <ele>38.2</ele>
        <time>2012-03-12T07:21:16Z</time>
      </trkpt>
      <trkpt lat="59.994240669" lon="23.4263353537">
        <ele>43</ele>
        <time>2012-03-12T07:21:20Z</time>
      </trkpt>
      <trkpt lat="59.9941488034" lon="23.4264710566">
        <ele>47.6</ele>
        <time>2012-03-12T07:21:24Z</time>
      </trkpt>
      <trkpt lat="59.9940470471" lon="23.4267310632">
        <ele>52.8</ele>
        <time>2012-03-12T07:21:29Z</time>
      </trkpt>
      <trkpt lat="59.993947051" lon="23.4268306402">
        <ele>57.2</ele>
        <time>2012-03-12T07:21:34Z</time>
      </trkpt>
      <trkpt lat="59.9936639105" lon="23.427206736">
        <ele>61.6</ele>
        <time>2012-03-12T07:21:45Z</time>
      </trkpt>
      <trkpt lat="59.99357523" lon="23.4272825084">
        <ele>62.2</ele>
        <time>2012-03-12T07:21:48Z</time>
      </trkpt>
      <trkpt lat="59.9934143813" lon="23.427340595">
        <ele>62.2</ele>
        <time>2012-03-12T07:21:53Z</time>
      </trkpt>
      <trkpt lat="59.9932355954" lon="23.4273271001">
        <ele>61.8</ele>
        <time>2012-03-12T07:21:58Z</time>
      </trkpt>
      <trkpt lat="59.9928289056" lon="23.4273396729">
        <ele>56.4</ele>
        <time>2012-03-12T07:22:08Z</time>
      </trkpt>
      <trkpt lat="59.9927931987" lon="23.4273365716">
        <ele>55.4</ele>
        <time>2012-03-12T07:22:09Z</time>
      </trkpt>
      <trkpt lat="59.9925935418" lon="23.4273210651">
        <ele>50.4</ele>
        <time>2012-03-12T07:22:15Z</time>
      </trkpt>
      <trkpt lat="59.9923949746" lon="23.4272934049">
        <ele>45.6</ele>
        <time>2012-03-12T07:22:21Z</time>
      </trkpt>
      <trkpt lat="59.9922116625" lon="23.4271892178">
        <ele>41.4</ele>
        <time>2012-03-12T07:22:27Z</time>
      </trkpt>
      <trkpt lat="59.9920503947" lon="23.4270046484">
        <ele>38.6</ele>
        <time>2012-03-12T07:22:33Z</time>
      </trkpt>
      <trkpt lat="59.9919472973" lon="23.4268463981">
        <ele>36.6</ele>
        <time>2012-03-12T07:22:37Z</time>
      </trkpt>
      <trkpt lat="59.9917873707" lon="23.426611202">
        <ele>35</ele>
        <time>2012-03-12T07:22:43Z</time>
      </trkpt>
      <trkpt lat="59.9916150388" lon="23.4264388702">
        <ele>33.2</ele>
        <time>2012-03-12T07:22:49Z</time>
      </trkpt>
      <trkpt lat="59.9914220037" lon="23.4262817933">
        <ele>32</ele>
        <time>2012-03-12T07:22:55Z</time>
      </trkpt>
      <trkpt lat="59.9912304773" lon="23.4261698112">
        <ele>31.6</ele>
        <time>2012-03-12T07:23:01Z</time>
      </trkpt>
      <trkpt lat="59.9910371068" lon="23.4261090424">
        <ele>31.2</ele>
        <time>2012-03-12T07:23:07Z</time>
      </trkpt>
      <trkpt lat="59.9908302415" lon="23.4260793705">
        <ele>31</ele>
        <time>2012-03-12T07:23:13Z</time>
      </trkpt>
      <trkpt lat="59.9906661239" lon="23.4260395564">
        <ele>30.2</ele>
        <time>2012-03-12T07:23:18Z</time>
      </trkpt>
      <trkpt lat="59.9904916966" lon="23.426030504">
        <ele>29.6</ele>
        <time>2012-03-12T07:23:23Z</time>
      </trkpt>
      <trkpt lat="59.9903359609" lon="23.4260027599">
        <ele>29.4</ele>
        <time>2012-03-12T07:23:28Z</time>
      </trkpt>
      <trkpt lat="59.9901239826" lon="23.4259640355">
        <ele>29.2</ele>
        <time>2012-03-12T07:23:34Z</time>
      </trkpt>
      <trkpt lat="59.9899470407" lon="23.4259540611">
        <ele>29</ele>
        <time>2012-03-12T07:23:39Z</time>
      </trkpt>
      <trkpt lat="59.9897414327" lon="23.425953642">
        <ele>29</ele>
        <time>2012-03-12T07:23:45Z</time>
      </trkpt>
      <trkpt lat="59.9896427778" lon="23.425944841">
        <ele>29</ele>
        <time>2012-03-12T07:23:48Z</time>
      </trkpt>
      <trkpt lat="59.9894804204" lon="23.4259362914">
        <ele>28.6</ele>
        <time>2012-03-12T07:23:53Z</time>
      </trkpt>
      <trkpt lat="59.9892943422" lon="23.4259117325">
        <ele>27.8</ele>
        <time>2012-03-12T07:23:59Z</time>
      </trkpt>
      <trkpt lat="59.9891004688" lon="23.4258930408">
        <ele>27.4</ele>
        <time>2012-03-12T07:24:05Z</time>
      </trkpt>
      <trkpt lat="59.9888945255" lon="23.425859597">
        <ele>27</ele>
        <time>2012-03-12T07:24:11Z</time>
      </trkpt>
      <trkpt lat="59.988735018" lon="23.4258360439">
        <ele>27</ele>
        <time>2012-03-12T07:24:16Z</time>
      </trkpt>
      <trkpt lat="59.9885890891" lon="23.4257974872">
        <ele>26.8</ele>
        <time>2012-03-12T07:24:21Z</time>
      </trkpt>
      <trkpt lat="59.9884326829" lon="23.4257552424">
        <ele>26</ele>
        <time>2012-03-12T07:24:26Z</time>
      </trkpt>
      <trkpt lat="59.9881083871" lon="23.4256496304">
        <ele>25.2</ele>
        <time>2012-03-12T07:24:36Z</time>
      </trkpt>
      <trkpt lat="59.9879166093" lon="23.4255973274">
        <ele>24.8</ele>
        <time>2012-03-12T07:24:42Z</time>
      </trkpt>
      <trkpt lat="59.9877591134" lon="23.4255663982">
        <ele>24</ele>
        <time>2012-03-12T07:24:47Z</time>
      </trkpt>
      <trkpt lat="59.9876072333" lon="23.4255163582">
        <ele>23.4</ele>
        <time>2012-03-12T07:24:52Z</time>
      </trkpt>
      <trkpt lat="59.9874599634" lon="23.425493308">
        <ele>23.2</ele>
        <time>2012-03-12T07:24:57Z</time>
      </trkpt>
      <trkpt lat="59.987283692" lon="23.4254163622">
        <ele>22</ele>
        <time>2012-03-12T07:25:03Z</time>
      </trkpt>
      <trkpt lat="59.9871326502" lon="23.4253107502">
        <ele>21.4</ele>
        <time>2012-03-12T07:25:08Z</time>
      </trkpt>
      <trkpt lat="59.9869755734" lon="23.4252274341">
        <ele>21.2</ele>
        <time>2012-03-12T07:25:13Z</time>
      </trkpt>
      <trkpt lat="59.9868076839" lon="23.4251549307">
        <ele>21</ele>
        <time>2012-03-12T07:25:18Z</time>
      </trkpt>
      <trkpt lat="59.9866100387" lon="23.4250763923">
        <ele>20.8</ele>
        <time>2012-03-12T07:25:24Z</time>
      </trkpt>
      <trkpt lat="59.9864016647" lon="23.4250558567">
        <ele>20.8</ele>
        <time>2012-03-12T07:25:30Z</time>
      </trkpt>
      <trkpt lat="59.9861424963" lon="23.4250389252">
        <ele>20.8</ele>
        <time>2012-03-12T07:25:38Z</time>
      </trkpt>
      <trkpt lat="59.986048619" lon="23.425040434">
        <ele>20.8</ele>
        <time>2012-03-12T07:25:41Z</time>
      </trkpt>
      <trkpt lat="59.9858688273" lon="23.4250649091">
        <ele>20.8</ele>
        <time>2012-03-12T07:25:47Z</time>
      </trkpt>
      <trkpt lat="59.9856576034" lon="23.425070525">
        <ele>20.6</ele>
        <time>2012-03-12T07:25:53Z</time>
      </trkpt>
      <trkpt lat="59.985484601" lon="23.4250715308">
        <ele>20.6</ele>
        <time>2012-03-12T07:25:58Z</time>
      </trkpt>
      <trkpt lat="59.9852731256" lon="23.425078404">
        <ele>20.6</ele>
        <time>2012-03-12T07:26:04Z</time>
      </trkpt>
      <trkpt lat="59.9850731335" lon="23.4250799127">
        <ele>20.6</ele>
        <time>2012-03-12T07:26:10Z</time>
      </trkpt>
      <trkpt lat="59.9848795954" lon="23.4250963412">
        <ele>19.8</ele>
        <time>2012-03-12T07:26:16Z</time>
      </trkpt>
      <trkpt lat="59.9846885719" lon="23.4250784878">
        <ele>19.2</ele>
        <time>2012-03-12T07:26:22Z</time>
      </trkpt>
      <trkpt lat="59.9845489295" lon="23.4251840159">
        <ele>19</ele>
        <time>2012-03-12T07:26:27Z</time>
      </trkpt>
      <trkpt lat="59.9843512843" lon="23.4252131849">
        <ele>18.2</ele>
        <time>2012-03-12T07:26:33Z</time>
      </trkpt>
      <trkpt lat="59.9842324289" lon="23.4252845987">
        <ele>17.6</ele>
        <time>2012-03-12T07:26:37Z</time>
      </trkpt>
      <trkpt lat="59.9840541459" lon="23.4254042084">
        <ele>17.2</ele>
        <time>2012-03-12T07:26:43Z</time>
      </trkpt>
      <trkpt lat="59.9839182753" lon="23.4253908812">
        <ele>16.8</ele>
        <time>2012-03-12T07:26:47Z</time>
      </trkpt>
      <trkpt lat="59.9837156848" lon="23.4254029511">
        <ele>15.8</ele>
        <time>2012-03-12T07:26:53Z</time>
      </trkpt>
      <trkpt lat="59.9835980029" lon="23.4254535778">
        <ele>15.2</ele>
        <time>2012-03-12T07:26:58Z</time>
      </trkpt>
      <trkpt lat="59.9834671615" lon="23.4254557571">
        <ele>14.4</ele>
        <time>2012-03-12T07:27:02Z</time>
      </trkpt>
      <trkpt lat="59.9833517427" lon="23.4256057931">
        <ele>13.6</ele>
        <time>2012-03-12T07:27:07Z</time>
      </trkpt>
      <trkpt lat="59.9833555146" lon="23.4259059489">
        <ele>13.2</ele>
        <time>2012-03-12T07:27:12Z</time>
      </trkpt>
      <trkpt lat="59.983411338" lon="23.4262462541">
        <ele>12.8</ele>
        <time>2012-03-12T07:27:18Z</time>
      </trkpt>
      <trkpt lat="59.9833625554" lon="23.4265319092">
        <ele>12.6</ele>
        <time>2012-03-12T07:27:23Z</time>
      </trkpt>
      <trkpt lat="59.9833063128" lon="23.426890906">
        <ele>12.6</ele>
        <time>2012-03-12T07:27:29Z</time>
      </trkpt>
      <trkpt lat="59.9832586198" lon="23.4271381721">
        <ele>12.6</ele>
        <time>2012-03-12T07:27:33Z</time>
      </trkpt>
      <trkpt lat="59.9831903073" lon="23.4275263379">
        <ele>12.4</ele>
        <time>2012-03-12T07:27:39Z</time>
      </trkpt>
      <trkpt lat="59.9831194803" lon="23.4279132464">
        <ele>12.4</ele>
        <time>2012-03-12T07:27:45Z</time>
      </trkpt>
      <trkpt lat="59.9830640759" lon="23.4282543897">
        <ele>12.4</ele>
        <time>2012-03-12T07:27:50Z</time>
      </trkpt>
      <trkpt lat="59.9829994515" lon="23.4286504345">
        <ele>12.4</ele>
        <time>2012-03-12T07:27:56Z</time>
      </trkpt>
      <trkpt lat="59.9829386827" lon="23.429050754">
        <ele>12.4</ele>
        <time>2012-03-12T07:28:02Z</time>
      </trkpt>
      <trkpt lat="59.9828716275" lon="23.4294390874">
        <ele>12.4</ele>
        <time>2012-03-12T07:28:08Z</time>
      </trkpt>
      <trkpt lat="59.9828165584" lon="23.4297518999">
        <ele>12.4</ele>
        <time>2012-03-12T07:28:13Z</time>
      </trkpt>
      <trkpt lat="59.9827698712" lon="23.4300678976">
        <ele>12.4</ele>
        <time>2012-03-12T07:28:18Z</time>
      </trkpt>
      <trkpt lat="59.982698206" lon="23.4302724998">
        <ele>12.4</ele>
        <time>2012-03-12T07:28:22Z</time>
      </trkpt>
      <trkpt lat="59.9825704658" lon="23.4304432391">
        <ele>12.4</ele>
        <time>2012-03-12T07:28:27Z</time>
      </trkpt>
      <trkpt lat="59.9823957032" lon="23.4305688837">
        <ele>12.4</ele>
        <time>2012-03-12T07:28:33Z</time>
      </trkpt>
      <trkpt lat="59.98203503" lon="23.4305485995">
        <ele>12.4</ele>
        <time>2012-03-12T07:28:44Z</time>
      </trkpt>
      <trkpt lat="59.9818347864" lon="23.4305607533">
        <ele>12.4</ele>
        <time>2012-03-12T07:28:50Z</time>
      </trkpt>
      <trkpt lat="59.9816954793" lon="23.4306680416">
        <ele>12.4</ele>
        <time>2012-03-12T07:28:55Z</time>
      </trkpt>
      <trkpt lat="59.9815912084" lon="23.4308935147">
        <ele>12.6</ele>
        <time>2012-03-12T07:29:00Z</time>
      </trkpt>
      <trkpt lat="59.9815146817" lon="23.4311765715">
        <ele>13.4</ele>
        <time>2012-03-12T07:29:05Z</time>
      </trkpt>
      <trkpt lat="59.9814249115" lon="23.4315124342">
        <ele>13.8</ele>
        <time>2012-03-12T07:29:11Z</time>
      </trkpt>
      <trkpt lat="59.9813439424" lon="23.4318592772">
        <ele>14.2</ele>
        <time>2012-03-12T07:29:17Z</time>
      </trkpt>
      <trkpt lat="59.9812793179" lon="23.4321578405">
        <ele>14.2</ele>
        <time>2012-03-12T07:29:22Z</time>
      </trkpt>
      <trkpt lat="59.9812146935" lon="23.4324536378">
        <ele>14.4</ele>
        <time>2012-03-12T07:29:27Z</time>
      </trkpt>
      <trkpt lat="59.9811281923" lon="23.4327159074">
        <ele>14.4</ele>
        <time>2012-03-12T07:29:32Z</time>
      </trkpt>
      <trkpt lat="59.9810638193" lon="23.4330457352">
        <ele>14.4</ele>
        <time>2012-03-12T07:29:38Z</time>
      </trkpt>
      <trkpt lat="59.9809825149" lon="23.4333670134">
        <ele>14.4</ele>
        <time>2012-03-12T07:29:43Z</time>
      </trkpt>
      <trkpt lat="59.9808939182" lon="23.4337337215">
        <ele>13.8</ele>
        <time>2012-03-12T07:29:49Z</time>
      </trkpt>
      <trkpt lat="59.980799538" lon="23.4340986695">
        <ele>13.2</ele>
        <time>2012-03-12T07:29:55Z</time>
      </trkpt>
      <trkpt lat="59.9807084267" lon="23.4344491167">
        <ele>12.8</ele>
        <time>2012-03-12T07:30:01Z</time>
      </trkpt>
      <trkpt lat="59.980617986" lon="23.4348009889">
        <ele>12.6</ele>
        <time>2012-03-12T07:30:07Z</time>
      </trkpt>
      <trkpt lat="59.9805407049" lon="23.4350971214">
        <ele>12.6</ele>
        <time>2012-03-12T07:30:12Z</time>
      </trkpt>
      <trkpt lat="59.9804516891" lon="23.4354465628">
        <ele>12.6</ele>
        <time>2012-03-12T07:30:18Z</time>
      </trkpt>
      <trkpt lat="59.9804007272" lon="23.4355966826">
        <ele>12.2</ele>
        <time>2012-03-12T07:30:21Z</time>
      </trkpt>
      <trkpt lat="59.980271143" lon="23.4356009574">
        <ele>11.6</ele>
        <time>2012-03-12T07:30:25Z</time>
      </trkpt>
      <trkpt lat="59.9800699774" lon="23.4354277874">
        <ele>11</ele>
        <time>2012-03-12T07:30:32Z</time>
      </trkpt>
      <trkpt lat="59.9799427402" lon="23.4353544457">
        <ele>10.8</ele>
        <time>2012-03-12T07:30:36Z</time>
      </trkpt>
      <trkpt lat="59.9797933747" lon="23.4354587166">
        <ele>10.6</ele>
        <time>2012-03-12T07:30:41Z</time>
      </trkpt>
      <trkpt lat="59.9796279998" lon="23.4356065733">
        <ele>10.6</ele>
        <time>2012-03-12T07:30:47Z</time>
      </trkpt>
      <trkpt lat="59.9794974936" lon="23.4357149512">
        <ele>10.6</ele>
        <time>2012-03-12T07:30:52Z</time>
      </trkpt>
      <trkpt lat="59.9793262514" lon="23.4358236645">
        <ele>10.4</ele>
        <time>2012-03-12T07:30:58Z</time>
      </trkpt>
      <trkpt lat="59.97917873" lon="23.4358390872">
        <ele>10.4</ele>
        <time>2012-03-12T07:31:03Z</time>
      </trkpt>
      <trkpt lat="59.9789846052" lon="23.4357888796">
        <ele>10.4</ele>
        <time>2012-03-12T07:31:09Z</time>
      </trkpt>
      <trkpt lat="59.9787971021" lon="23.4357205671">
        <ele>10.4</ele>
        <time>2012-03-12T07:31:15Z</time>
      </trkpt>
      <trkpt lat="59.978642456" lon="23.4356048131">
        <ele>10.4</ele>
        <time>2012-03-12T07:31:20Z</time>
      </trkpt>
      <trkpt lat="59.9785417056" lon="23.4354607282">
        <ele>10.4</ele>
        <time>2012-03-12T07:31:24Z</time>
      </trkpt>
      <trkpt lat="59.978427125" lon="23.4352674416">
        <ele>10.4</ele>
        <time>2012-03-12T07:31:29Z</time>
      </trkpt>
      <trkpt lat="59.9782795197" lon="23.4350740712">
        <ele>10.4</ele>
        <time>2012-03-12T07:31:35Z</time>
      </trkpt>
      <trkpt lat="59.9781072717" lon="23.4348210216">
        <ele>10.4</ele>
        <time>2012-03-12T07:31:42Z</time>
      </trkpt>
      <trkpt lat="59.978012221" lon="23.4345592549">
        <ele>10.4</ele>
        <time>2012-03-12T07:31:47Z</time>
      </trkpt>
      <trkpt lat="59.9778574073" lon="23.4343034393">
        <ele>11.4</ele>
        <time>2012-03-12T07:31:54Z</time>
      </trkpt>
      <trkpt lat="59.9777258952" lon="23.4341272517">
        <ele>12</ele>
        <time>2012-03-12T07:32:00Z</time>
      </trkpt>
      <trkpt lat="59.9775581734" lon="23.4339158602">
        <ele>12.2</ele>
        <time>2012-03-12T07:32:06Z</time>
      </trkpt>
      <trkpt lat="59.97742641" lon="23.4337338892">
        <ele>12.4</ele>
        <time>2012-03-12T07:32:11Z</time>
      </trkpt>
      <trkpt lat="59.977323145" lon="23.4336096694">
        <ele>12.4</ele>
        <time>2012-03-12T07:32:15Z</time>
      </trkpt>
      <trkpt lat="59.9771658167" lon="23.4333988646">
        <ele>12.4</ele>
        <time>2012-03-12T07:32:21Z</time>
      </trkpt>
      <trkpt lat="59.9770394176" lon="23.4332100204">
        <ele>12.4</ele>
        <time>2012-03-12T07:32:26Z</time>
      </trkpt>
      <trkpt lat="59.9768670858" lon="23.4329767522">
        <ele>12.4</ele>
        <time>2012-03-12T07:32:33Z</time>
      </trkpt>
      <trkpt lat="59.9767393456" lon="23.4328264647">
        <ele>12.4</ele>
        <time>2012-03-12T07:32:38Z</time>
      </trkpt>
      <trkpt lat="59.9765968533" lon="23.4326877442">
        <ele>12.4</ele>
        <time>2012-03-12T07:32:43Z</time>
      </trkpt>
      <trkpt lat="59.9764662633" lon="23.4325439947">
        <ele>12.4</ele>
        <time>2012-03-12T07:32:48Z</time>
      </trkpt>
      <trkpt lat="59.976296446" lon="23.4324617682">
        <ele>13.4</ele>
        <time>2012-03-12T07:32:54Z</time>
      </trkpt>
      <trkpt lat="59.9761599887" lon="23.4325375406">
        <ele>13.8</ele>
        <time>2012-03-12T07:32:59Z</time>
      </trkpt>
      <trkpt lat="59.9759878245" lon="23.432674417">
        <ele>14.2</ele>
        <time>2012-03-12T07:33:05Z</time>
      </trkpt>
      <trkpt lat="59.9758433205" lon="23.4328054261">
        <ele>14.4</ele>
        <time>2012-03-12T07:33:10Z</time>
      </trkpt>
      <trkpt lat="59.9757068632" lon="23.4329157319">
        <ele>14.4</ele>
        <time>2012-03-12T07:33:15Z</time>
      </trkpt>
      <trkpt lat="59.975563365" lon="23.4328988843">
        <ele>14.4</ele>
        <time>2012-03-12T07:33:20Z</time>
      </trkpt>
      <trkpt lat="59.9754248122" lon="23.432751782">
        <ele>14.4</ele>
        <time>2012-03-12T07:33:25Z</time>
      </trkpt>
      <trkpt lat="59.9752619519" lon="23.4325874129">
        <ele>14.6</ele>
        <time>2012-03-12T07:33:31Z</time>
      </trkpt>
      <trkpt lat="59.9751234829" lon="23.4324437471">
        <ele>14.6</ele>
        <time>2012-03-12T07:33:36Z</time>
      </trkpt>
      <trkpt lat="59.9749664899" lon="23.4322779531">
        <ele>14.6</ele>
        <time>2012-03-12T07:33:42Z</time>
      </trkpt>
      <trkpt lat="59.9748613809" lon="23.4321388974">
        <ele>14.6</ele>
        <time>2012-03-12T07:33:46Z</time>
      </trkpt>
      <trkpt lat="59.9747250074" lon="23.4320073854">
        <ele>14.6</ele>
        <time>2012-03-12T07:33:51Z</time>
      </trkpt>
      <trkpt lat="59.9746988559" lon="23.4319789708">
        <ele>14.6</ele>
        <time>2012-03-12T07:33:52Z</time>
      </trkpt>
      <trkpt lat="59.9746730396" lon="23.4316973389">
        <ele>14.6</ele>
        <time>2012-03-12T07:33:57Z</time>
      </trkpt>
      <trkpt lat="59.9746810863" lon="23.4316167889">
        <ele>14.6</ele>
        <time>2012-03-12T07:33:58Z</time>
      </trkpt>
      <trkpt lat="59.9747164579" lon="23.4312396034">
        <ele>14.6</ele>
        <time>2012-03-12T07:34:04Z</time>
      </trkpt>
      <trkpt lat="59.9747283602" lon="23.4309380226">
        <ele>14.6</ele>
        <time>2012-03-12T07:34:09Z</time>
      </trkpt>
      <trkpt lat="59.9747073216" lon="23.4306527866">
        <ele>14.6</ele>
        <time>2012-03-12T07:34:14Z</time>
      </trkpt>
      <trkpt lat="59.9746778173" lon="23.4303753457">
        <ele>14.6</ele>
        <time>2012-03-12T07:34:19Z</time>
      </trkpt>
      <trkpt lat="59.9745678468" lon="23.4301684804">
        <ele>14.6</ele>
        <time>2012-03-12T07:34:24Z</time>
      </trkpt>
      <trkpt lat="59.9744421183" lon="23.4299771216">
        <ele>14.6</ele>
        <time>2012-03-12T07:34:29Z</time>
      </trkpt>
      <trkpt lat="59.9742822755" lon="23.4297557556">
        <ele>14.6</ele>
        <time>2012-03-12T07:34:35Z</time>
      </trkpt>
      <trkpt lat="59.9741583072" lon="23.4296038756">
        <ele>14.6</ele>
        <time>2012-03-12T07:34:40Z</time>
      </trkpt>
      <trkpt lat="59.9739942734" lon="23.4293852756">
        <ele>14.6</ele>
        <time>2012-03-12T07:34:46Z</time>
      </trkpt>
      <trkpt lat="59.9738347658" lon="23.4291975211">
        <ele>14.6</ele>
        <time>2012-03-12T07:34:52Z</time>
      </trkpt>
      <trkpt lat="59.9737047625" lon="23.4290247701">
        <ele>14.6</ele>
        <time>2012-03-12T07:34:57Z</time>
      </trkpt>
      <trkpt lat="59.9735706521" lon="23.4288475768">
        <ele>14.6</ele>
        <time>2012-03-12T07:35:02Z</time>
      </trkpt>
      <trkpt lat="59.9735462608" lon="23.4288153903">
        <ele>14.6</ele>
        <time>2012-03-12T07:35:03Z</time>
      </trkpt>
      <trkpt lat="59.973421622" lon="23.4286448186">
        <ele>14.6</ele>
        <time>2012-03-12T07:35:08Z</time>
      </trkpt>
      <trkpt lat="59.9732833206" lon="23.4285246221">
        <ele>14.6</ele>
        <time>2012-03-12T07:35:13Z</time>
      </trkpt>
      <trkpt lat="59.9731207956" lon="23.4284883285">
        <ele>14.6</ele>
        <time>2012-03-12T07:35:18Z</time>
      </trkpt>
      <trkpt lat="59.9729347174" lon="23.4284975486">
        <ele>14.6</ele>
        <time>2012-03-12T07:35:24Z</time>
      </trkpt>
      <trkpt lat="59.9727579431" lon="23.4285898333">
        <ele>14.6</ele>
        <time>2012-03-12T07:35:30Z</time>
      </trkpt>
      <trkpt lat="59.972582929" lon="23.4287076828">
        <ele>14.6</ele>
        <time>2012-03-12T07:35:36Z</time>
      </trkpt>
      <trkpt lat="59.9724720365" lon="23.4287430545">
        <ele>14.6</ele>
        <time>2012-03-12T07:35:40Z</time>
      </trkpt>
      <trkpt lat="59.9722781632" lon="23.4287626681">
        <ele>14.6</ele>
        <time>2012-03-12T07:35:46Z</time>
      </trkpt>
      <trkpt lat="59.9721222598" lon="23.4287741513">
        <ele>14.6</ele>
        <time>2012-03-12T07:35:51Z</time>
      </trkpt>
      <trkpt lat="59.9719324098" lon="23.4288186592">
        <ele>14.6</ele>
        <time>2012-03-12T07:35:57Z</time>
      </trkpt>
      <trkpt lat="59.971751696" lon="23.4288869717">
        <ele>14.4</ele>
        <time>2012-03-12T07:36:03Z</time>
      </trkpt>
      <trkpt lat="59.971582214" lon="23.4290304698">
        <ele>13.4</ele>
        <time>2012-03-12T07:36:09Z</time>
      </trkpt>
      <trkpt lat="59.9714734169" lon="23.4292285341">
        <ele>13</ele>
        <time>2012-03-12T07:36:14Z</time>
      </trkpt>
      <trkpt lat="59.9714615146" lon="23.4294636464">
        <ele>12.8</ele>
        <time>2012-03-12T07:36:18Z</time>
      </trkpt>
      <trkpt lat="59.9715175896" lon="23.4296836713">
        <ele>12.8</ele>
        <time>2012-03-12T07:36:22Z</time>
      </trkpt>
      <trkpt lat="59.971594703" lon="23.4300319392">
        <ele>12.6</ele>
        <time>2012-03-12T07:36:28Z</time>
      </trkpt>
      <trkpt lat="59.9717349322" lon="23.4306679578">
        <ele>12.6</ele>
        <time>2012-03-12T07:36:40Z</time>
      </trkpt>
      <trkpt lat="59.9718102017" lon="23.4309800998">
        <ele>12.6</ele>
        <time>2012-03-12T07:36:46Z</time>
      </trkpt>
      <trkpt lat="59.9718979602" lon="23.4312287069">
        <ele>12.4</ele>
        <time>2012-03-12T07:36:51Z</time>
      </trkpt>
      <trkpt lat="59.9719939329" lon="23.4315483088">
        <ele>12.4</ele>
        <time>2012-03-12T07:36:57Z</time>
      </trkpt>
      <trkpt lat="59.9720855471" lon="23.431772776">
        <ele>12.4</ele>
        <time>2012-03-12T07:37:02Z</time>
      </trkpt>
      <trkpt lat="59.9722102698" lon="23.4319574293">
        <ele>12.4</ele>
        <time>2012-03-12T07:37:07Z</time>
      </trkpt>
      <trkpt lat="59.9722800072" lon="23.4321587625">
        <ele>12.4</ele>
        <time>2012-03-12T07:37:11Z</time>
      </trkpt>
      <trkpt lat="59.9723877984" lon="23.432322461">
        <ele>12.4</ele>
        <time>2012-03-12T07:37:16Z</time>
      </trkpt>
      <trkpt lat="59.9724932427" lon="23.4323719142">
        <ele>12.4</ele>
        <time>2012-03-12T07:37:20Z</time>
      </trkpt>
      <trkpt lat="59.9725815041" lon="23.4325065276">
        <ele>12.4</ele>
        <time>2012-03-12T07:37:24Z</time>
      </trkpt>
      <trkpt lat="59.972714022" lon="23.432787405">
        <ele>12.4</ele>
        <time>2012-03-12T07:37:31Z</time>
      </trkpt>
      <trkpt lat="59.9728514013" lon="23.4330365989">
        <ele>13</ele>
        <time>2012-03-12T07:37:37Z</time>
      </trkpt>
      <trkpt lat="59.9729702566" lon="23.4332387703">
        <ele>13.6</ele>
        <time>2012-03-12T07:37:42Z</time>
      </trkpt>
      <trkpt lat="59.9730833285" lon="23.4334460547">
        <ele>14</ele>
        <time>2012-03-12T07:37:47Z</time>
      </trkpt>
      <trkpt lat="59.9731734339" lon="23.4336574463">
        <ele>14.8</ele>
        <time>2012-03-12T07:37:52Z</time>
      </trkpt>
      <trkpt lat="59.9732452668" lon="23.4338468772">
        <ele>15.6</ele>
        <time>2012-03-12T07:37:57Z</time>
      </trkpt>
      <trkpt lat="59.9733342826" lon="23.4340010203">
        <ele>16</ele>
        <time>2012-03-12T07:38:01Z</time>
      </trkpt>
      <trkpt lat="59.9734781998" lon="23.4339769643">
        <ele>16.2</ele>
        <time>2012-03-12T07:38:07Z</time>
      </trkpt>
      <trkpt lat="59.9735706521" lon="23.4339721866">
        <ele>16.4</ele>
        <time>2012-03-12T07:38:11Z</time>
      </trkpt>
      <trkpt lat="59.973617004" lon="23.4339859329">
        <ele>16.4</ele>
        <time>2012-03-12T07:38:13Z</time>
      </trkpt>
      <trkpt lat="59.9736441614" lon="23.4342281698">
        <ele>16.6</ele>
        <time>2012-03-12T07:38:18Z</time>
      </trkpt>
      <trkpt lat="59.9737141503" lon="23.4344471889">
        <ele>16.6</ele>
        <time>2012-03-12T07:38:23Z</time>
      </trkpt>
      <trkpt lat="59.9738371127" lon="23.4346172576">
        <ele>16.6</ele>
        <time>2012-03-12T07:38:28Z</time>
      </trkpt>
      <trkpt lat="59.9739676189" lon="23.4348091193">
        <ele>16.8</ele>
        <time>2012-03-12T07:38:33Z</time>
      </trkpt>
      <trkpt lat="59.9740665253" lon="23.4349423915">
        <ele>17.4</ele>
        <time>2012-03-12T07:38:37Z</time>
      </trkpt>
      <trkpt lat="59.9742228478" lon="23.4351414616">
        <ele>18</ele>
        <time>2012-03-12T07:38:43Z</time>
      </trkpt>
      <trkpt lat="59.9743640828" lon="23.4353587205">
        <ele>19.4</ele>
        <time>2012-03-12T07:38:49Z</time>
      </trkpt>
      <trkpt lat="59.9745181421" lon="23.4355413621">
        <ele>20.4</ele>
        <time>2012-03-12T07:38:55Z</time>
      </trkpt>
      <trkpt lat="59.9746770629" lon="23.4357682601">
        <ele>21.8</ele>
        <time>2012-03-12T07:39:02Z</time>
      </trkpt>
      <trkpt lat="59.9748165378" lon="23.4359656539">
        <ele>22.4</ele>
        <time>2012-03-12T07:39:08Z</time>
      </trkpt>
      <trkpt lat="59.9749675796" lon="23.4361604492">
        <ele>23.4</ele>
        <time>2012-03-12T07:39:14Z</time>
      </trkpt>
      <trkpt lat="59.9750784721" lon="23.4363313562">
        <ele>24</ele>
        <time>2012-03-12T07:39:19Z</time>
      </trkpt>
      <trkpt lat="59.9751846708" lon="23.4365093877">
        <ele>24.4</ele>
        <time>2012-03-12T07:39:24Z</time>
      </trkpt>
      <trkpt lat="59.9754027678" lon="23.436885735">
        <ele>26</ele>
        <time>2012-03-12T07:39:35Z</time>
      </trkpt>
      <trkpt lat="59.9755619401" lon="23.4370819553">
        <ele>26.6</ele>
        <time>2012-03-12T07:39:42Z</time>
      </trkpt>
      <trkpt lat="59.9756857408" lon="23.4372430554">
        <ele>26.8</ele>
        <time>2012-03-12T07:39:47Z</time>
      </trkpt>
      <trkpt lat="59.97584726" lon="23.4374741444">
        <ele>26.8</ele>
        <time>2012-03-12T07:39:54Z</time>
      </trkpt>
      <trkpt lat="59.9759516147" lon="23.4376447161">
        <ele>27</ele>
        <time>2012-03-12T07:39:59Z</time>
      </trkpt>
      <trkpt lat="59.9760859765" lon="23.4378390085">
        <ele>27</ele>
        <time>2012-03-12T07:40:05Z</time>
      </trkpt>
      <trkpt lat="59.9762007247" lon="23.4379994381">
        <ele>27</ele>
        <time>2012-03-12T07:40:10Z</time>
      </trkpt>
      <trkpt lat="59.9762213442" lon="23.4380126815">
        <ele>27</ele>
        <time>2012-03-12T07:40:11Z</time>
      </trkpt>
      <trkpt lat="59.9762940153" lon="23.4381088219">
        <ele>27</ele>
        <time>2012-03-12T07:40:14Z</time>
      </trkpt>
      <trkpt lat="59.9763977832" lon="23.4382988396">
        <ele>27</ele>
        <time>2012-03-12T07:40:19Z</time>
      </trkpt>
      <trkpt lat="59.9764979469" lon="23.4385844109">
        <ele>27</ele>
        <time>2012-03-12T07:40:25Z</time>
      </trkpt>
      <trkpt lat="59.9765785808" lon="23.4389145739">
        <ele>27</ele>
        <time>2012-03-12T07:40:31Z</time>
      </trkpt>
      <trkpt lat="59.976654437" lon="23.4391660309">
        <ele>27.4</ele>
        <time>2012-03-12T07:40:36Z</time>
      </trkpt>
      <trkpt lat="59.9767496554" lon="23.439513796">
        <ele>28.4</ele>
        <time>2012-03-12T07:40:43Z</time>
      </trkpt>
      <trkpt lat="59.9768242543" lon="23.4397630737">
        <ele>29.8</ele>
        <time>2012-03-12T07:40:48Z</time>
      </trkpt>
      <trkpt lat="59.9768575304" lon="23.4398978546">
        <ele>30.8</ele>
        <time>2012-03-12T07:40:51Z</time>
      </trkpt>
      <trkpt lat="59.976920227" lon="23.4398860361">
        <ele>32.6</ele>
        <time>2012-03-12T07:40:56Z</time>
      </trkpt>
      <trkpt lat="59.9769363203" lon="23.4398746368">
        <ele>32.8</ele>
        <time>2012-03-12T07:40:57Z</time>
      </trkpt>
      <trkpt lat="59.9770586122" lon="23.4397323959">
        <ele>34.6</ele>
        <time>2012-03-12T07:41:03Z</time>
      </trkpt>
      <trkpt lat="59.9772077262" lon="23.4395121196">
        <ele>35.8</ele>
        <time>2012-03-12T07:41:08Z</time>
      </trkpt>
      <trkpt lat="59.9773440997" lon="23.4392431444">
        <ele>36.8</ele>
        <time>2012-03-12T07:41:13Z</time>
      </trkpt>
      <trkpt lat="59.9774402401" lon="23.4390574853">
        <ele>37.8</ele>
        <time>2012-03-12T07:41:17Z</time>
      </trkpt>
      <trkpt lat="59.9775328601" lon="23.4388935354">
        <ele>38.6</ele>
        <time>2012-03-12T07:41:22Z</time>
      </trkpt>
      <trkpt lat="59.9776614384" lon="23.4387420744">
        <ele>39</ele>
        <time>2012-03-12T07:41:28Z</time>
      </trkpt>
      <trkpt lat="59.9777646196" lon="23.4385704131">
        <ele>39.2</ele>
        <time>2012-03-12T07:41:33Z</time>
      </trkpt>
      <trkpt lat="59.9779118058" lon="23.4383369772">
        <ele>39.4</ele>
        <time>2012-03-12T07:41:39Z</time>
      </trkpt>
      <trkpt lat="59.9780134782" lon="23.4381710156">
        <ele>39.4</ele>
        <time>2012-03-12T07:41:44Z</time>
      </trkpt>
      <trkpt lat="59.9781471695" lon="23.4379566066">
        <ele>39.2</ele>
        <time>2012-03-12T07:41:50Z</time>
      </trkpt>
      <trkpt lat="59.9782990496" lon="23.4377541837">
        <ele>38.2</ele>
        <time>2012-03-12T07:41:56Z</time>
      </trkpt>
      <trkpt lat="59.9783727265" lon="23.437668856">
        <ele>38</ele>
        <time>2012-03-12T07:42:00Z</time>
      </trkpt>
      <trkpt lat="59.9784551205" lon="23.4375226756">
        <ele>37.8</ele>
        <time>2012-03-12T07:42:05Z</time>
      </trkpt>
      <trkpt lat="59.9785800947" lon="23.437358558">
        <ele>37.6</ele>
        <time>2012-03-12T07:42:10Z</time>
      </trkpt>
      <trkpt lat="59.9786862095" lon="23.4372155628">
        <ele>37</ele>
        <time>2012-03-12T07:42:14Z</time>
      </trkpt>
      <trkpt lat="59.9787427035" lon="23.4371990505">
        <ele>36.2</ele>
        <time>2012-03-12T07:42:20Z</time>
      </trkpt>
      <trkpt lat="59.9787680169" lon="23.4371625054">
        <ele>36</ele>
        <time>2012-03-12T07:42:23Z</time>
      </trkpt>
      <trkpt lat="59.9787930788" lon="23.4371464959">
        <ele>35.6</ele>
        <time>2012-03-12T07:42:32Z</time>
      </trkpt>
      <trkpt lat="59.9789881256" lon="23.4374002999">
        <ele>36.2</ele>
        <time>2012-03-12T07:42:42Z</time>
      </trkpt>
      <trkpt lat="59.9792350563" lon="23.4376608931">
        <ele>37.6</ele>
        <time>2012-03-12T07:42:53Z</time>
      </trkpt>
      <trkpt lat="59.9792503114" lon="23.4377032217">
        <ele>38</ele>
        <time>2012-03-12T07:42:54Z</time>
      </trkpt>
      <trkpt lat="59.9793708431" lon="23.4380530822">
        <ele>39</ele>
        <time>2012-03-12T07:43:02Z</time>
      </trkpt>
      <trkpt lat="59.9794444362" lon="23.4382714307">
        <ele>39.8</ele>
        <time>2012-03-12T07:43:07Z</time>
      </trkpt>
      <trkpt lat="59.979462122" lon="23.4383114124">
        <ele>40</ele>
        <time>2012-03-12T07:43:08Z</time>
      </trkpt>
      <trkpt lat="59.9795592682" lon="23.4383611171">
        <ele>40.6</ele>
        <time>2012-03-12T07:43:12Z</time>
      </trkpt>
      <trkpt lat="59.9797507108" lon="23.438425993">
        <ele>41.2</ele>
        <time>2012-03-12T07:43:19Z</time>
      </trkpt>
      <trkpt lat="59.9799301673" lon="23.4384012664">
        <ele>40.6</ele>
        <time>2012-03-12T07:43:26Z</time>
      </trkpt>
      <trkpt lat="59.9800872441" lon="23.437932802">
        <ele>38.4</ele>
        <time>2012-03-12T07:43:36Z</time>
      </trkpt>
      <trkpt lat="59.9801247112" lon="23.4376620666">
        <ele>37.4</ele>
        <time>2012-03-12T07:43:41Z</time>
      </trkpt>
      <trkpt lat="59.9801587417" lon="23.4374110287">
        <ele>35.8</ele>
        <time>2012-03-12T07:43:46Z</time>
      </trkpt>
      <trkpt lat="59.9801886651" lon="23.4371752459">
        <ele>35</ele>
        <time>2012-03-12T07:43:50Z</time>
      </trkpt>
      <trkpt lat="59.9802288144" lon="23.4368265588">
        <ele>33.4</ele>
        <time>2012-03-12T07:43:56Z</time>
      </trkpt>
      <trkpt lat="59.9802626773" lon="23.4365976491">
        <ele>32.6</ele>
        <time>2012-03-12T07:44:00Z</time>
      </trkpt>
      <trkpt lat="59.9803117952" lon="23.4363219684">
        <ele>32.2</ele>
        <time>2012-03-12T07:44:05Z</time>
      </trkpt>
      <trkpt lat="59.9803550458" lon="23.436095741">
        <ele>31.2</ele>
        <time>2012-03-12T07:44:09Z</time>
      </trkpt>
      <trkpt lat="59.9804116236" lon="23.4357411866">
        <ele>30.4</ele>
        <time>2012-03-12T07:44:15Z</time>
      </trkpt>
      <trkpt lat="59.9804547904" lon="23.4354044857">
        <ele>29.8</ele>
        <time>2012-03-12T07:44:21Z</time>
      </trkpt>
      <trkpt lat="59.9805355081" lon="23.4350886557">
        <ele>29.6</ele>
        <time>2012-03-12T07:44:27Z</time>
      </trkpt>
      <trkpt lat="59.9806208359" lon="23.4347646952">
        <ele>28.6</ele>
        <time>2012-03-12T07:44:33Z</time>
      </trkpt>
      <trkpt lat="59.9806918306" lon="23.4344668025">
        <ele>28</ele>
        <time>2012-03-12T07:44:39Z</time>
      </trkpt>
      <trkpt lat="59.9807847858" lon="23.4341420877">
        <ele>27</ele>
        <time>2012-03-12T07:44:45Z</time>
      </trkpt>
      <trkpt lat="59.9808594686" lon="23.4338602044">
        <ele>26.2</ele>
        <time>2012-03-12T07:44:50Z</time>
      </trkpt>
      <trkpt lat="59.9809413597" lon="23.4335443744">
        <ele>25.2</ele>
        <time>2012-03-12T07:44:56Z</time>
      </trkpt>
      <trkpt lat="59.9810062356" lon="23.4332786682">
        <ele>24.2</ele>
        <time>2012-03-12T07:45:01Z</time>
      </trkpt>
      <trkpt lat="59.9810758892" lon="23.4330163147">
        <ele>23.2</ele>
        <time>2012-03-12T07:45:06Z</time>
      </trkpt>
      <trkpt lat="59.9811370771" lon="23.4327672885">
        <ele>22.2</ele>
        <time>2012-03-12T07:45:11Z</time>
      </trkpt>
      <trkpt lat="59.981171862" lon="23.4324999897">
        <ele>21.4</ele>
        <time>2012-03-12T07:45:16Z</time>
      </trkpt>
      <trkpt lat="59.9812482211" lon="23.4321906976">
        <ele>20.2</ele>
        <time>2012-03-12T07:45:22Z</time>
      </trkpt>
      <trkpt lat="59.9813381589" lon="23.4318328743">
        <ele>19.6</ele>
        <time>2012-03-12T07:45:29Z</time>
      </trkpt>
      <trkpt lat="59.981413596" lon="23.4315198103">
        <ele>19.2</ele>
        <time>2012-03-12T07:45:35Z</time>
      </trkpt>
      <trkpt lat="59.9814736942" lon="23.4312500808">
        <ele>18.2</ele>
        <time>2012-03-12T07:45:40Z</time>
      </trkpt>
      <trkpt lat="59.9815110775" lon="23.4310828618">
        <ele>17.8</ele>
        <time>2012-03-12T07:45:43Z</time>
      </trkpt>
      <trkpt lat="59.9815406656" lon="23.4309841231">
        <ele>17.6</ele>
        <time>2012-03-12T07:45:45Z</time>
      </trkpt>
      <trkpt lat="59.9816468642" lon="23.4307459095">
        <ele>17.2</ele>
        <time>2012-03-12T07:45:50Z</time>
      </trkpt>
      <trkpt lat="59.9817679827" lon="23.4304961288">
        <ele>17</ele>
        <time>2012-03-12T07:45:56Z</time>
      </trkpt>
      <trkpt lat="59.9819248919" lon="23.4304460889">
        <ele>16.8</ele>
        <time>2012-03-12T07:46:01Z</time>
      </trkpt>
      <trkpt lat="59.9821082878" lon="23.4304678818">
        <ele>16.8</ele>
        <time>2012-03-12T07:46:07Z</time>
      </trkpt>
      <trkpt lat="59.9823112136" lon="23.4304373717">
        <ele>16</ele>
        <time>2012-03-12T07:46:14Z</time>
      </trkpt>
      <trkpt lat="59.9824900834" lon="23.4303840628">
        <ele>15.4</ele>
        <time>2012-03-12T07:46:20Z</time>
      </trkpt>
      <trkpt lat="59.9825889898" lon="23.4302657942">
        <ele>15.2</ele>
        <time>2012-03-12T07:46:24Z</time>
      </trkpt>
      <trkpt lat="59.9827013911" lon="23.4300804704">
        <ele>15</ele>
        <time>2012-03-12T07:46:29Z</time>
      </trkpt>
      <trkpt lat="59.9827826117" lon="23.4298164406">
        <ele>14.8</ele>
        <time>2012-03-12T07:46:35Z</time>
      </trkpt>
      <trkpt lat="59.9828074221" lon="23.4295700965">
        <ele>14.8</ele>
        <time>2012-03-12T07:46:40Z</time>
      </trkpt>
      <trkpt lat="59.9828549475" lon="23.4292388438">
        <ele>14.8</ele>
        <time>2012-03-12T07:46:46Z</time>
      </trkpt>
      <trkpt lat="59.9828978628" lon="23.4289621573">
        <ele>14.8</ele>
        <time>2012-03-12T07:46:51Z</time>
      </trkpt>
      <trkpt lat="59.98296584" lon="23.4285618378">
        <ele>14.8</ele>
        <time>2012-03-12T07:46:58Z</time>
      </trkpt>
      <trkpt lat="59.9830190651" lon="23.428234357">
        <ele>14.8</ele>
        <time>2012-03-12T07:47:04Z</time>
      </trkpt>
      <trkpt lat="59.983074218" lon="23.4278782938">
        <ele>14.8</ele>
        <time>2012-03-12T07:47:10Z</time>
      </trkpt>
      <trkpt lat="59.9831150379" lon="23.427598506">
        <ele>14.8</ele>
        <time>2012-03-12T07:47:15Z</time>
      </trkpt>
      <trkpt lat="59.9831732082" lon="23.4272494837">
        <ele>14.8</ele>
        <time>2012-03-12T07:47:21Z</time>
      </trkpt>
      <trkpt lat="59.9832193087" lon="23.426965924">
        <ele>14.8</ele>
        <time>2012-03-12T07:47:26Z</time>
      </trkpt>
      <trkpt lat="59.9832802451" lon="23.4266308157">
        <ele>14.8</ele>
        <time>2012-03-12T07:47:32Z</time>
      </trkpt>
      <trkpt lat="59.9833370744" lon="23.4262863196">
        <ele>14.8</ele>
        <time>2012-03-12T07:47:38Z</time>
      </trkpt>
      <trkpt lat="59.9833522456" lon="23.4260227088">
        <ele>14.8</ele>
        <time>2012-03-12T07:47:43Z</time>
      </trkpt>
      <trkpt lat="59.9832864477" lon="23.4257116565">
        <ele>14.8</ele>
        <time>2012-03-12T07:47:49Z</time>
      </trkpt>
      <trkpt lat="59.9833225737" lon="23.4254390771">
        <ele>14.8</ele>
        <time>2012-03-12T07:47:54Z</time>
      </trkpt>
      <trkpt lat="59.9834352264" lon="23.4253322079">
        <ele>14.8</ele>
        <time>2012-03-12T07:47:58Z</time>
      </trkpt>
      <trkpt lat="59.9835741983" lon="23.4253166176">
        <ele>14.8</ele>
        <time>2012-03-12T07:48:03Z</time>
      </trkpt>
      <trkpt lat="59.9835935605" lon="23.4252874485">
        <ele>14.8</ele>
        <time>2012-03-12T07:48:04Z</time>
      </trkpt>
      <trkpt lat="59.9836114978" lon="23.4252574413">
        <ele>14.8</ele>
        <time>2012-03-12T07:48:05Z</time>
      </trkpt>
      <trkpt lat="59.9836907067" lon="23.4253214791">
        <ele>14.8</ele>
        <time>2012-03-12T07:48:09Z</time>
      </trkpt>
      <trkpt lat="59.9838601888" lon="23.4253491393">
        <ele>14.8</ele>
        <time>2012-03-12T07:48:15Z</time>
      </trkpt>
      <trkpt lat="59.9840471051" lon="23.425329358">
        <ele>14.8</ele>
        <time>2012-03-12T07:48:21Z</time>
      </trkpt>
      <trkpt lat="59.9842087082" lon="23.4252422701">
        <ele>14.8</ele>
        <time>2012-03-12T07:48:27Z</time>
      </trkpt>
      <trkpt lat="59.9843057706" lon="23.4251152843">
        <ele>14.8</ele>
        <time>2012-03-12T07:48:31Z</time>
      </trkpt>
      <trkpt lat="59.9845012365" lon="23.4249883824">
        <ele>14.8</ele>
        <time>2012-03-12T07:48:38Z</time>
      </trkpt>
      <trkpt lat="59.984678346" lon="23.4250012905">
        <ele>14.8</ele>
        <time>2012-03-12T07:48:44Z</time>
      </trkpt>
      <trkpt lat="59.9848805174" lon="23.4249989436">
        <ele>14.8</ele>
        <time>2012-03-12T07:48:51Z</time>
      </trkpt>
      <trkpt lat="59.985026614" lon="23.4250121031">
        <ele>14.8</ele>
        <time>2012-03-12T07:48:56Z</time>
      </trkpt>
      <trkpt lat="59.9851629037" lon="23.4250148692">
        <ele>14.8</ele>
        <time>2012-03-12T07:49:01Z</time>
      </trkpt>
      <trkpt lat="59.9853333915" lon="23.4249955908">
        <ele>14.8</ele>
        <time>2012-03-12T07:49:07Z</time>
      </trkpt>
      <trkpt lat="59.985527181" lon="23.4249950879">
        <ele>14.8</ele>
        <time>2012-03-12T07:49:14Z</time>
      </trkpt>
      <trkpt lat="59.9857037877" lon="23.4250260171">
        <ele>14.8</ele>
        <time>2012-03-12T07:49:20Z</time>
      </trkpt>
      <trkpt lat="59.9858561706" lon="23.4250247598">
        <ele>15.6</ele>
        <time>2012-03-12T07:49:25Z</time>
      </trkpt>
      <trkpt lat="59.9860387284" lon="23.4250282802">
        <ele>16</ele>
        <time>2012-03-12T07:49:31Z</time>
      </trkpt>
      <trkpt lat="59.9861914466" lon="23.4250137795">
        <ele>16.4</ele>
        <time>2012-03-12T07:49:36Z</time>
      </trkpt>
      <trkpt lat="59.986350116" lon="23.4249928248">
        <ele>16.6</ele>
        <time>2012-03-12T07:49:42Z</time>
      </trkpt>
      <trkpt lat="59.9865059355" lon="23.4249954232">
        <ele>16.6</ele>
        <time>2012-03-12T07:49:47Z</time>
      </trkpt>
      <trkpt lat="59.9866586537" lon="23.4250259333">
        <ele>16.6</ele>
        <time>2012-03-12T07:49:52Z</time>
      </trkpt>
      <trkpt lat="59.9868366853" lon="23.425095503">
        <ele>16.6</ele>
        <time>2012-03-12T07:49:58Z</time>
      </trkpt>
      <trkpt lat="59.9870305586" lon="23.4252147775">
        <ele>16.8</ele>
        <time>2012-03-12T07:50:05Z</time>
      </trkpt>
      <trkpt lat="59.9871740567" lon="23.4253019492">
        <ele>16.8</ele>
        <time>2012-03-12T07:50:10Z</time>
      </trkpt>
      <trkpt lat="59.9873080833" lon="23.425378476">
        <ele>16.8</ele>
        <time>2012-03-12T07:50:15Z</time>
      </trkpt>
      <trkpt lat="59.9874447083" lon="23.4254140152">
        <ele>16.8</ele>
        <time>2012-03-12T07:50:20Z</time>
      </trkpt>
      <trkpt lat="59.9875993544" lon="23.4254646419">
        <ele>16.8</ele>
        <time>2012-03-12T07:50:26Z</time>
      </trkpt>
      <trkpt lat="59.9877510667" lon="23.4255227285">
        <ele>16.8</ele>
        <time>2012-03-12T07:50:32Z</time>
      </trkpt>
      <trkpt lat="59.9879325349" lon="23.4255485447">
        <ele>16.8</ele>
        <time>2012-03-12T07:50:39Z</time>
      </trkpt>
      <trkpt lat="59.9880880191" lon="23.4255608661">
        <ele>16.8</ele>
        <time>2012-03-12T07:50:44Z</time>
      </trkpt>
      <trkpt lat="59.9882382228" lon="23.4255907057">
        <ele>16.8</ele>
        <time>2012-03-12T07:50:49Z</time>
      </trkpt>
      <trkpt lat="59.988350205" lon="23.4256026918">
        <ele>16.8</ele>
        <time>2012-03-12T07:50:53Z</time>
      </trkpt>
      <trkpt lat="59.9884864108" lon="23.4256347945">
        <ele>16.8</ele>
        <time>2012-03-12T07:50:58Z</time>
      </trkpt>
      <trkpt lat="59.9888035819" lon="23.4256695794">
        <ele>16.8</ele>
        <time>2012-03-12T07:51:08Z</time>
      </trkpt>
      <trkpt lat="59.9889917556" lon="23.4256865108">
        <ele>17.2</ele>
        <time>2012-03-12T07:51:14Z</time>
      </trkpt>
      <trkpt lat="59.9891899875" lon="23.4257229721">
        <ele>18</ele>
        <time>2012-03-12T07:51:20Z</time>
      </trkpt>
      <trkpt lat="59.9893524287" lon="23.4257311863">
        <ele>18.2</ele>
        <time>2012-03-12T07:51:25Z</time>
      </trkpt>
      <trkpt lat="59.9895421111" lon="23.4257553262">
        <ele>18.6</ele>
        <time>2012-03-12T07:51:31Z</time>
      </trkpt>
      <trkpt lat="59.9897818335" lon="23.4257719224">
        <ele>18.6</ele>
        <time>2012-03-12T07:51:39Z</time>
      </trkpt>
      <trkpt lat="59.9899745334" lon="23.4258011752">
        <ele>18.6</ele>
        <time>2012-03-12T07:51:45Z</time>
      </trkpt>
      <trkpt lat="59.9901281736" lon="23.4258124069">
        <ele>18.8</ele>
        <time>2012-03-12T07:51:50Z</time>
      </trkpt>
      <trkpt lat="59.990274773" lon="23.4258245607">
        <ele>18.8</ele>
        <time>2012-03-12T07:51:55Z</time>
      </trkpt>
      <trkpt lat="59.9904287485" lon="23.4258505446">
        <ele>18.8</ele>
        <time>2012-03-12T07:52:00Z</time>
      </trkpt>
      <trkpt lat="59.9905848195" lon="23.425867476">
        <ele>18.8</ele>
        <time>2012-03-12T07:52:05Z</time>
      </trkpt>
      <trkpt lat="59.9907594983" lon="23.4259050269">
        <ele>18.8</ele>
        <time>2012-03-12T07:52:11Z</time>
      </trkpt>
      <trkpt lat="59.9909051757" lon="23.4259338607">
        <ele>18.8</ele>
        <time>2012-03-12T07:52:16Z</time>
      </trkpt>
      <trkpt lat="59.9910896613" lon="23.4259519656">
        <ele>18.8</ele>
        <time>2012-03-12T07:52:22Z</time>
      </trkpt>
      <trkpt lat="59.9912368475" lon="23.4260097169">
        <ele>18.8</ele>
        <time>2012-03-12T07:52:27Z</time>
      </trkpt>
      <trkpt lat="59.9914220037" lon="23.4261248004">
        <ele>18.8</ele>
        <time>2012-03-12T07:52:33Z</time>
      </trkpt>
      <trkpt lat="59.9915911504" lon="23.4262494392">
        <ele>18.8</ele>
        <time>2012-03-12T07:52:39Z</time>
      </trkpt>
      <trkpt lat="59.9917644043" lon="23.4264148141">
        <ele>19.2</ele>
        <time>2012-03-12T07:52:45Z</time>
      </trkpt>
      <trkpt lat="59.9918890431" lon="23.4265995512">
        <ele>19.8</ele>
        <time>2012-03-12T07:52:50Z</time>
      </trkpt>
      <trkpt lat="59.9920297752" lon="23.426826533">
        <ele>20.2</ele>
        <time>2012-03-12T07:52:56Z</time>
      </trkpt>
      <trkpt lat="59.9921589403" lon="23.426983526">
        <ele>20.4</ele>
        <time>2012-03-12T07:53:01Z</time>
      </trkpt>
      <trkpt lat="59.992324399" lon="23.4271391779">
        <ele>20.6</ele>
        <time>2012-03-12T07:53:07Z</time>
      </trkpt>
      <trkpt lat="59.9925150872" lon="23.4271924868">
        <ele>20.6</ele>
        <time>2012-03-12T07:53:13Z</time>
      </trkpt>
      <trkpt lat="59.99270829" lon="23.4272055625">
        <ele>20.8</ele>
        <time>2012-03-12T07:53:19Z</time>
      </trkpt>
      <trkpt lat="59.9928909316" lon="23.4272057302">
        <ele>20.8</ele>
        <time>2012-03-12T07:53:25Z</time>
      </trkpt>
      <trkpt lat="59.9930880739" lon="23.4272115975">
        <ele>20.8</ele>
        <time>2012-03-12T07:53:31Z</time>
      </trkpt>
      <trkpt lat="59.9932650997" lon="23.4271907266">
        <ele>20.8</ele>
        <time>2012-03-12T07:53:37Z</time>
      </trkpt>
      <trkpt lat="59.9934145489" lon="23.4271325562">
        <ele>20.8</ele>
        <time>2012-03-12T07:53:42Z</time>
      </trkpt>
      <trkpt lat="59.9935696141" lon="23.4269387667">
        <ele>20.8</ele>
        <time>2012-03-12T07:53:48Z</time>
      </trkpt>
      <trkpt lat="59.9936524273" lon="23.4267825281">
        <ele>20.8</ele>
        <time>2012-03-12T07:53:52Z</time>
      </trkpt>
      <trkpt lat="59.9938438699" lon="23.4266402872">
        <ele>20.8</ele>
        <time>2012-03-12T07:53:59Z</time>
      </trkpt>
      <trkpt lat="59.9939107574" lon="23.4264578132">
        <ele>20.8</ele>
        <time>2012-03-12T07:54:03Z</time>
      </trkpt>
      <trkpt lat="59.9940168723" lon="23.4261803724">
        <ele>20.2</ele>
        <time>2012-03-12T07:54:08Z</time>
      </trkpt>
      <trkpt lat="59.9941113363" lon="23.4260724135">
        <ele>19.6</ele>
        <time>2012-03-12T07:54:12Z</time>
      </trkpt>
      <trkpt lat="59.9942285152" lon="23.4261900954">
        <ele>19.4</ele>
        <time>2012-03-12T07:54:16Z</time>
      </trkpt>
      <trkpt lat="59.9943719296" lon="23.4264594896">
        <ele>19</ele>
        <time>2012-03-12T07:54:22Z</time>
      </trkpt>
      <trkpt lat="59.9944778768" lon="23.4266949372">
        <ele>18.8</ele>
        <time>2012-03-12T07:54:27Z</time>
      </trkpt>
      <trkpt lat="59.9945811418" lon="23.4268740584">
        <ele>18.8</ele>
        <time>2012-03-12T07:54:31Z</time>
      </trkpt>
      <trkpt lat="59.9947616041" lon="23.4270598851">
        <ele>18.8</ele>
        <time>2012-03-12T07:54:37Z</time>
      </trkpt>
      <trkpt lat="59.9949071139" lon="23.427193325">
        <ele>18.8</ele>
        <time>2012-03-12T07:54:42Z</time>
      </trkpt>
      <trkpt lat="59.9949346065" lon="23.4272153694">
        <ele>18.8</ele>
        <time>2012-03-12T07:54:43Z</time>
      </trkpt>
      <trkpt lat="59.9949589978" lon="23.4272212367">
        <ele>18.8</ele>
        <time>2012-03-12T07:54:45Z</time>
      </trkpt>
    </trkseg>
  </trk>
</gpx>